Time;durP1;ratioP1;P1;durP2;ratioP2;P2;SDS_P1;SDS_P2;PMS_P1;PMS_P2;Temp;Humidity;BMP_temperature;BMP_pressure;BME280_temperature;BME280_humidity;BME280_pressure;Samples;Min_cycle;Max_cycle;Signal;HPM_P1;HPM_P2
2023/09/26 00:02:25;;;;;;;6.30;3.72;;;;;;;8.67;100.00;97887.41;5009095;28;20041;-63
2023/09/26 00:04:51;;;;;;;6.70;3.58;;;;;;;8.63;100.00;97887.03;5004833;28;20037;-63
2023/09/26 00:07:18;;;;;;;6.93;4.20;;;;;;;8.58;100.00;97887.72;5005977;28;20073;-63
2023/09/26 00:09:45;;;;;;;5.63;3.85;;;;;;;8.46;100.00;97890.31;5005001;28;20033;-63
2023/09/26 00:12:12;;;;;;;7.60;3.65;;;;;;;8.45;100.00;97899.44;5006356;28;20038;-63
2023/09/26 00:14:38;;;;;;;5.88;3.78;;;;;;;8.53;100.00;97898.38;5005335;28;20117;-63
2023/09/26 00:17:05;;;;;;;5.65;3.78;;;;;;;8.53;100.00;97894.84;5006273;28;20707;-63
2023/09/26 00:19:32;;;;;;;6.47;3.50;;;;;;;8.63;100.00;97889.75;5006104;28;20070;-63
2023/09/26 00:21:58;;;;;;;7.30;3.80;;;;;;;8.63;100.00;97878.09;5005407;28;20046;-64
2023/09/26 00:24:25;;;;;;;5.97;3.63;;;;;;;8.63;100.00;97865.44;5006066;28;20081;-64
2023/09/26 00:26:51;;;;;;;5.63;3.55;;;;;;;8.68;100.00;97880.94;5005891;28;20117;-64
2023/09/26 00:29:18;;;;;;;7.78;3.92;;;;;;;8.69;100.00;97878.03;5005882;28;20048;-63
2023/09/26 00:31:44;;;;;;;6.95;3.72;;;;;;;8.77;100.00;97876.06;5005470;28;20120;-63
2023/09/26 00:34:12;;;;;;;6.93;3.63;;;;;;;8.79;100.00;97880.19;5005691;28;20053;-64
2023/09/26 00:36:38;;;;;;;7.10;3.80;;;;;;;8.69;100.00;97867.22;5004760;28;20042;-63
2023/09/26 00:39:05;;;;;;;6.53;3.53;;;;;;;8.69;100.00;97869.94;4996900;28;20129;-63
2023/09/26 00:41:33;;;;;;;6.53;3.50;;;;;;;8.62;100.00;97871.88;5005430;28;20533;-63
2023/09/26 00:44:00;;;;;;;5.43;3.35;;;;;;;8.53;100.00;97874.06;5007786;28;20042;-64
2023/09/26 00:46:28;;;;;;;6.70;3.90;;;;;;;8.56;100.00;97881.69;5005298;28;20129;-63
2023/09/26 00:48:55;;;;;;;5.55;3.70;;;;;;;8.54;100.00;97874.88;5005740;28;20210;-63
2023/09/26 00:51:22;;;;;;;6.82;4.32;;;;;;;8.55;100.00;97876.56;5005559;28;20100;-63
2023/09/26 00:53:49;;;;;;;5.95;3.80;;;;;;;8.61;100.00;97872.09;5004555;28;20405;-63
2023/09/26 00:56:16;;;;;;;7.10;4.22;;;;;;;8.68;100.00;97864.75;5006115;28;20052;-63
2023/09/26 00:58:43;;;;;;;5.63;3.47;;;;;;;8.79;100.00;97865.84;5004508;28;20046;-63
2023/09/26 01:01:10;;;;;;;6.88;4.00;;;;;;;8.97;100.00;97865.00;5006108;28;20429;-63
2023/09/26 01:03:38;;;;;;;6.75;3.50;;;;;;;8.93;100.00;97867.34;5004630;28;20096;-63
2023/09/26 01:06:05;;;;;;;5.93;3.63;;;;;;;8.90;100.00;97864.25;5009811;28;20046;-63
2023/09/26 01:08:32;;;;;;;6.18;3.40;;;;;;;8.86;100.00;97866.59;5004637;28;20046;-63
2023/09/26 01:10:58;;;;;;;5.13;3.38;;;;;;;8.84;100.00;97868.69;5005006;28;20034;-63
2023/09/26 01:13:25;;;;;;;6.20;3.60;;;;;;;8.82;100.00;97865.41;5005260;28;20046;-63
2023/09/26 01:15:52;;;;;;;6.18;3.60;;;;;;;8.84;100.00;97861.44;5004446;28;20041;-63
2023/09/26 01:18:23;;;;;;;6.50;3.72;;;;;;;8.83;100.00;97857.09;5004554;28;20054;-63
2023/09/26 01:20:50;;;;;;;6.47;3.65;;;;;;;8.70;100.00;97852.66;5004328;28;20048;-62
2023/09/26 01:23:22;;;;;;;5.40;3.30;;;;;;;8.56;100.00;97862.00;5004004;28;20042;-63
2023/09/26 01:25:49;;;;;;;5.88;3.67;;;;;;;8.49;100.00;97863.91;4992024;28;20038;-62
2023/09/26 01:28:17;;;;;;;5.38;3.67;;;;;;;8.49;100.00;97869.31;5004535;28;20042;-63
2023/09/26 01:30:43;;;;;;;6.25;3.45;;;;;;;8.52;100.00;97875.06;4994386;28;20050;-63
2023/09/26 01:33:12;;;;;;;5.60;3.35;;;;;;;8.45;100.00;97869.75;4986638;28;20421;-63
2023/09/26 01:35:39;;;;;;;5.35;3.67;;;;;;;8.42;100.00;97864.00;4993206;28;20038;-63
2023/09/26 01:38:06;;;;;;;7.97;4.30;;;;;;;8.44;100.00;97870.00;5004897;28;20505;-63
2023/09/26 01:40:32;;;;;;;6.25;4.00;;;;;;;8.31;100.00;97863.72;5003809;28;20037;-63
2023/09/26 01:42:59;;;;;;;7.55;3.83;;;;;;;8.28;100.00;97863.31;5005496;28;20116;-63
2023/09/26 01:45:25;;;;;;;7.45;3.95;;;;;;;8.38;100.00;97877.13;5004889;28;20103;-62
2023/09/26 01:47:52;;;;;;;5.97;3.60;;;;;;;8.26;100.00;97858.16;5001132;28;20119;-62
2023/09/26 01:50:20;;;;;;;5.80;3.97;;;;;;;8.36;100.00;97860.31;5004593;28;20037;-62
2023/09/26 01:52:48;;;;;;;7.72;4.28;;;;;;;8.50;100.00;97862.84;5002643;28;20046;-63
2023/09/26 01:55:19;;;;;;;6.35;3.95;;;;;;;8.68;100.00;97867.44;5004674;28;20045;-62
2023/09/26 01:57:47;;;;;;;6.53;3.80;;;;;;;8.79;100.00;97861.28;4985567;28;20053;-64
2023/09/26 02:00:15;;;;;;;5.25;3.50;;;;;;;8.68;100.00;97852.09;4986025;28;20040;-62
2023/09/26 02:02:44;;;;;;;4.90;3.42;;;;;;;8.63;100.00;97854.66;5002119;28;20045;-62
2023/09/26 02:05:13;;;;;;;6.22;3.58;;;;;;;8.69;100.00;97845.63;5004669;28;20835;-61
2023/09/26 02:07:39;;;;;;;5.30;3.50;;;;;;;8.90;100.00;97848.88;5003122;28;20108;-62
2023/09/26 02:10:07;;;;;;;5.47;3.53;;;;;;;9.02;100.00;97845.38;5004267;28;20108;-61
2023/09/26 02:12:36;;;;;;;8.77;3.95;;;;;;;9.07;100.00;97838.25;5001830;28;20082;-62
2023/09/26 02:15:05;;;;;;;5.60;4.05;;;;;;;8.99;100.00;97843.97;4986639;28;20052;-63
2023/09/26 02:17:35;;;;;;;5.82;3.88;;;;;;;9.01;100.00;97843.75;4991432;28;20149;-62
2023/09/26 02:20:05;;;;;;;6.00;4.03;;;;;;;8.90;100.00;97850.75;5003830;28;20037;-63
2023/09/26 02:22:34;;;;;;;6.35;3.97;;;;;;;8.92;100.00;97843.25;4985024;28;20512;-63
2023/09/26 02:25:01;;;;;;;5.55;3.78;;;;;;;8.92;100.00;97841.38;5011707;28;20045;-64
2023/09/26 02:27:28;;;;;;;6.63;3.97;;;;;;;8.90;100.00;97851.59;5002640;28;20034;-64
2023/09/26 02:29:54;;;;;;;6.75;4.00;;;;;;;8.91;100.00;97849.69;5004620;28;20496;-62
2023/09/26 02:32:21;;;;;;;7.00;4.10;;;;;;;8.98;100.00;97832.34;4987878;28;20448;-63
2023/09/26 02:34:48;;;;;;;8.40;3.80;;;;;;;9.01;100.00;97832.94;5002542;28;20045;-62
2023/09/26 02:37:14;;;;;;;7.78;3.20;;;;;;;9.06;100.00;97824.97;5003875;28;20052;-63
2023/09/26 02:39:41;;;;;;;4.93;3.22;;;;;;;9.16;100.00;97827.94;5002464;28;20205;-61
2023/09/26 02:42:07;;;;;;;5.90;3.38;;;;;;;9.10;100.00;97826.97;5003196;28;20041;-63
2023/09/26 02:44:35;;;;;;;7.63;3.80;;;;;;;9.09;100.00;97830.75;4986460;28;20691;-61
2023/09/26 02:47:01;;;;;;;7.55;3.28;;;;;;;9.06;100.00;97817.69;5003350;28;20038;-63
2023/09/26 02:49:28;;;;;;;6.57;3.92;;;;;;;8.97;100.00;97824.47;5001360;28;20042;-64
2023/09/26 02:51:54;;;;;;;6.43;3.95;;;;;;;8.82;100.00;97824.91;4985254;28;20046;-62
2023/09/26 02:54:21;;;;;;;8.25;4.05;;;;;;;8.74;100.00;97825.22;5002457;28;20536;-62
2023/09/26 02:56:48;;;;;;;7.47;4.40;;;;;;;8.67;100.00;97828.00;4999163;28;21021;-63
2023/09/26 02:59:14;;;;;;;6.88;4.47;;;;;;;8.55;100.00;97834.19;5002194;28;20038;-62
2023/09/26 03:01:41;;;;;;;7.22;4.88;;;;;;;8.49;100.00;97831.53;4984280;28;20264;-62
2023/09/26 03:04:07;;;;;;;6.80;4.20;;;;;;;8.48;100.00;97841.53;5002974;28;20113;-63
2023/09/26 03:06:34;;;;;;;6.35;4.13;;;;;;;8.58;100.00;97835.59;5002327;28;20044;-63
2023/09/26 03:09:01;;;;;;;8.93;4.63;;;;;;;8.59;100.00;97835.38;5003439;28;20084;-62
2023/09/26 03:11:29;;;;;;;7.25;4.43;;;;;;;8.54;100.00;97832.53;4992628;28;20042;-62
2023/09/26 03:13:56;;;;;;;6.68;4.70;;;;;;;8.59;100.00;97831.88;5001220;28;20053;-64
2023/09/26 03:16:22;;;;;;;6.10;3.65;;;;;;;8.58;100.00;97832.88;5003871;28;20038;-62
2023/09/26 03:18:53;;;;;;;6.15;4.60;;;;;;;8.45;100.00;97828.47;4989516;28;20038;-63
2023/09/26 03:21:21;;;;;;;9.43;4.57;;;;;;;8.34;100.00;97835.47;5002848;28;20129;-63
2023/09/26 03:23:48;;;;;;;6.20;3.90;;;;;;;8.31;100.00;97836.72;4983788;28;20053;-62
2023/09/26 03:26:15;;;;;;;5.70;3.60;;;;;;;8.39;100.00;97827.50;5003322;28;20042;-62
2023/09/26 03:28:42;;;;;;;7.68;3.60;;;;;;;8.45;100.00;97831.97;5000788;28;20084;-64
2023/09/26 03:31:09;;;;;;;5.13;3.75;;;;;;;8.55;100.00;97827.97;4985785;28;20041;-63
2023/09/26 03:33:35;;;;;;;6.05;3.78;;;;;;;8.68;100.00;97817.00;5001607;28;20501;-64
2023/09/26 03:36:03;;;;;;;5.88;3.67;;;;;;;8.77;100.00;97816.66;5002932;28;20056;-63
2023/09/26 03:38:30;;;;;;;6.30;4.13;;;;;;;8.75;100.00;97805.25;5001242;28;20108;-63
2023/09/26 03:40:58;;;;;;;5.45;3.55;;;;;;;8.76;100.00;97806.91;5006664;28;20116;-63
2023/09/26 03:43:28;;;;;;;6.00;3.60;;;;;;;8.75;100.00;97813.38;5008249;28;20049;-62
2023/09/26 03:46:03;;;;;;;5.70;3.50;;;;;;;8.75;100.00;97808.81;5006636;28;20045;-64
2023/09/26 03:48:30;;;;;;;5.60;3.40;;;;;;;8.76;100.00;97812.31;5000894;28;20565;-63
2023/09/26 03:51:10;;;;;;;6.20;3.65;;;;;;;8.78;100.00;97807.50;5005973;28;20112;-63
2023/09/26 03:53:38;;;;;;;6.07;4.00;;;;;;;8.67;100.00;97807.22;5005307;28;20038;-64
2023/09/26 03:56:05;;;;;;;5.57;3.42;;;;;;;8.76;100.00;97804.19;5006493;28;20519;-63
2023/09/26 03:58:32;;;;;;;5.78;3.80;;;;;;;8.62;100.00;97806.28;5005994;28;20050;-63
2023/09/26 04:01:13;;;;;;;6.95;4.13;;;;;;;8.57;100.00;97805.09;5010321;28;20034;-63
2023/09/26 04:03:42;;;;;;;6.70;3.90;;;;;;;8.60;100.00;97811.91;5004540;28;20056;-63
2023/09/26 04:06:09;;;;;;;6.22;4.05;;;;;;;8.52;100.00;97806.78;5006701;28;20096;-64
2023/09/26 04:08:36;;;;;;;5.60;3.40;;;;;;;8.64;100.00;97815.81;5001101;28;20046;-63
2023/09/26 04:11:02;;;;;;;6.43;3.80;;;;;;;8.73;100.00;97816.28;5010318;28;20121;-61
2023/09/26 04:13:29;;;;;;;7.22;4.00;;;;;;;8.76;100.00;97817.69;5004673;28;20049;-64
2023/09/26 04:15:56;;;;;;;7.72;4.05;;;;;;;8.82;100.00;97811.41;5005703;28;20540;-63
2023/09/26 04:18:25;;;;;;;6.68;4.15;;;;;;;8.70;100.00;97812.16;5006500;28;20049;-63
2023/09/26 04:20:52;;;;;;;8.65;4.38;;;;;;;8.62;100.00;97809.00;5000750;28;20124;-63
2023/09/26 04:23:18;;;;;;;7.63;4.22;;;;;;;8.56;100.00;97806.13;5005961;28;20050;-62
2023/09/26 04:25:45;;;;;;;6.15;4.53;;;;;;;8.55;100.00;97800.97;5004860;28;20041;-63
2023/09/26 04:28:12;;;;;;;6.60;3.85;;;;;;;8.52;100.00;97807.59;5005819;28;20532;-63
2023/09/26 04:30:39;;;;;;;8.15;4.47;;;;;;;8.50;100.00;97803.47;5007748;28;20065;-63
2023/09/26 04:33:08;;;;;;;6.85;4.80;;;;;;;8.42;100.00;97797.38;5005552;28;20044;-63
2023/09/26 04:35:36;;;;;;;9.27;5.10;;;;;;;8.44;100.00;97799.84;5008201;28;20060;-63
2023/09/26 04:38:03;;;;;;;6.68;3.88;;;;;;;8.32;100.00;97795.19;5004046;28;20120;-63
2023/09/26 04:40:30;;;;;;;5.72;3.88;;;;;;;8.27;100.00;97797.75;5000628;28;20153;-63
2023/09/26 04:43:05;;;;;;;6.97;4.43;;;;;;;8.26;100.00;97793.41;5007159;28;20029;-64
2023/09/26 04:45:32;;;;;;;7.50;4.30;;;;;;;8.29;100.00;97797.53;5005038;28;20049;-64
2023/09/26 04:48:00;;;;;;;6.47;4.35;;;;;;;8.24;100.00;97792.81;5005440;28;20117;-63
2023/09/26 04:50:28;;;;;;;6.75;4.78;;;;;;;7.99;100.00;97793.72;5006591;28;20042;-63
2023/09/26 04:52:56;;;;;;;8.35;4.45;;;;;;;7.93;100.00;97806.22;5002911;28;20121;-63
2023/09/26 04:55:23;;;;;;;7.65;4.00;;;;;;;8.18;100.00;97804.50;5001467;28;20038;-63
2023/09/26 04:57:49;;;;;;;6.22;3.70;;;;;;;8.42;100.00;97797.38;5004300;28;20187;-62
2023/09/26 05:00:17;;;;;;;6.25;4.05;;;;;;;8.49;100.00;97796.44;5002736;28;20154;-63
2023/09/26 05:02:45;;;;;;;7.32;3.72;;;;;;;8.32;100.00;97797.91;5001528;28;20093;-63
2023/09/26 05:05:12;;;;;;;7.10;3.83;;;;;;;8.17;100.00;97800.16;5005394;28;20529;-64
2023/09/26 05:07:43;;;;;;;7.78;4.25;;;;;;;8.08;100.00;97805.03;5004600;28;20045;-63
2023/09/26 05:10:11;;;;;;;5.90;4.13;;;;;;;7.93;100.00;97808.13;4997575;28;20041;-63
2023/09/26 05:12:40;;;;;;;7.93;4.72;;;;;;;7.95;100.00;97822.19;5000749;28;20140;-64
2023/09/26 05:15:15;;;;;;;7.25;4.38;;;;;;;7.96;100.00;97818.44;5002511;28;20050;-64
2023/09/26 05:17:45;;;;;;;9.90;4.57;;;;;;;8.03;100.00;97818.34;5003680;28;20128;-63
2023/09/26 05:20:12;;;;;;;9.27;4.63;;;;;;;8.14;100.00;97817.63;5003717;28;20044;-63
2023/09/26 05:22:41;;;;;;;5.90;3.85;;;;;;;8.17;100.00;97814.47;5000328;28;20064;-63
2023/09/26 05:25:08;;;;;;;6.65;4.32;;;;;;;8.23;100.00;97812.75;4997499;28;20052;-63
2023/09/26 05:27:37;;;;;;;7.22;4.30;;;;;;;8.24;100.00;97802.78;5002211;28;20056;-65
2023/09/26 05:30:05;;;;;;;7.50;4.13;;;;;;;8.26;100.00;97809.59;4997785;28;20508;-63
2023/09/26 05:32:32;;;;;;;6.57;4.15;;;;;;;8.21;100.00;97809.44;5003816;28;20034;-63
2023/09/26 05:34:59;;;;;;;6.18;4.65;;;;;;;8.24;100.00;97813.56;5002542;28;20038;-64
2023/09/26 05:37:26;;;;;;;9.15;4.18;;;;;;;8.26;100.00;97822.28;5002803;28;20053;-63
2023/09/26 05:39:53;;;;;;;7.95;4.30;;;;;;;8.23;100.00;97820.00;5001682;28;20061;-63
2023/09/26 05:42:19;;;;;;;6.32;4.25;;;;;;;8.31;100.00;97815.16;5002399;28;20200;-64
2023/09/26 05:44:46;;;;;;;6.13;4.20;;;;;;;8.39;100.00;97819.41;5001382;28;20463;-63
2023/09/26 05:47:12;;;;;;;7.50;4.30;;;;;;;8.42;100.00;97812.72;5002538;28;20056;-62
2023/09/26 05:49:39;;;;;;;7.45;3.97;;;;;;;8.45;100.00;97813.09;5003150;28;20050;-63
2023/09/26 05:52:05;;;;;;;6.72;4.30;;;;;;;8.38;100.00;97819.63;4984151;28;20409;-64
2023/09/26 05:54:33;;;;;;;7.53;4.13;;;;;;;8.25;100.00;97821.44;5001803;28;20045;-64
2023/09/26 05:57:03;;;;;;;7.78;4.45;;;;;;;8.41;100.00;97814.59;5006145;28;20572;-63
2023/09/26 05:59:29;;;;;;;7.05;4.05;;;;;;;8.43;100.00;97814.38;5002124;28;20568;-63
2023/09/26 06:01:56;;;;;;;7.55;4.55;;;;;;;8.32;100.00;97824.03;4993649;28;20096;-63
2023/09/26 06:04:23;;;;;;;6.97;4.43;;;;;;;8.24;100.00;97821.66;5002102;28;20124;-63
2023/09/26 06:06:49;;;;;;;11.88;5.43;;;;;;;8.29;100.00;97827.22;5004291;28;20045;-64
2023/09/26 06:09:16;;;;;;;8.02;4.53;;;;;;;8.35;100.00;97828.16;5002478;28;20048;-63
2023/09/26 06:11:42;;;;;;;8.30;4.97;;;;;;;8.52;100.00;97831.09;5002352;28;20687;-63
2023/09/26 06:14:09;;;;;;;6.38;4.38;;;;;;;8.58;100.00;97833.72;5001910;28;20105;-63
2023/09/26 06:16:36;;;;;;;7.43;4.70;;;;;;;8.65;100.00;97827.41;5003687;28;20053;-64
2023/09/26 06:19:02;;;;;;;6.85;4.57;;;;;;;8.71;100.00;97821.91;5001722;28;20042;-63
2023/09/26 06:21:29;;;;;;;6.43;4.22;;;;;;;8.78;100.00;97816.44;5001705;28;20056;-62
2023/09/26 06:23:55;;;;;;;6.70;4.38;;;;;;;8.91;100.00;97817.28;5001052;28;20037;-63
2023/09/26 06:26:22;;;;;;;7.80;4.75;;;;;;;9.07;100.00;97813.94;5002279;28;20127;-64
2023/09/26 06:28:49;;;;;;;8.32;4.32;;;;;;;9.15;100.00;97815.50;5000710;28;20113;-64
2023/09/26 06:31:16;;;;;;;11.27;5.53;;;;;;;9.18;100.00;97820.41;4996047;28;20038;-63
2023/09/26 06:33:43;;;;;;;6.45;4.72;;;;;;;9.29;100.00;97817.97;5000692;28;20049;-63
2023/09/26 06:36:11;;;;;;;7.25;4.40;;;;;;;9.35;100.00;97814.34;5001860;28;20103;-63
2023/09/26 06:38:38;;;;;;;7.90;4.35;;;;;;;9.48;100.00;97822.22;4999747;28;20042;-62
2023/09/26 06:41:06;;;;;;;7.43;4.45;;;;;;;9.61;100.00;97814.94;5002090;28;20042;-65
2023/09/26 06:43:33;;;;;;;7.82;4.60;;;;;;;9.73;100.00;97814.97;5005509;28;20054;-63
2023/09/26 06:46:08;;;;;;;6.28;4.35;;;;;;;9.89;100.00;97813.41;5002936;28;20046;-64
2023/09/26 06:48:38;;;;;;;6.18;4.15;;;;;;;10.09;100.00;97813.03;5001190;28;20034;-64
2023/09/26 06:51:05;;;;;;;6.88;3.88;;;;;;;10.24;100.00;97815.25;4998548;28;20542;-63
2023/09/26 06:53:33;;;;;;;6.25;4.40;;;;;;;10.42;100.00;97813.44;5006085;28;20053;-64
2023/09/26 06:56:09;;;;;;;6.47;4.40;;;;;;;10.56;100.00;97815.88;5001952;28;20046;-64
2023/09/26 06:58:36;;;;;;;7.68;4.10;;;;;;;10.68;100.00;97813.16;5002394;28;20038;-64
2023/09/26 07:01:11;;;;;;;6.82;3.88;;;;;;;10.82;100.00;97811.78;4997519;28;20068;-63
2023/09/26 07:03:38;;;;;;;6.82;4.20;;;;;;;10.97;100.00;97819.38;5002625;28;20505;-64
2023/09/26 07:06:10;;;;;;;5.50;4.03;;;;;;;11.10;100.00;97818.25;5003421;28;20042;-63
2023/09/26 07:08:41;;;;;;;5.65;3.60;;;;;;;11.16;100.00;97824.56;5003785;28;20107;-63
2023/09/26 07:11:09;;;;;;;7.05;3.85;;;;;;;11.29;100.00;97818.00;4996584;28;20042;-64
2023/09/26 07:13:35;;;;;;;10.15;3.90;;;;;;;11.41;100.00;97815.22;5006348;28;20049;-64
2023/09/26 07:16:15;;;;;;;7.95;3.63;;;;;;;11.57;100.00;97813.56;5004109;28;20037;-63
2023/09/26 07:18:42;;;;;;;6.50;3.15;;;;;;;11.66;100.00;97816.69;4984757;28;20046;-65
2023/09/26 07:21:09;;;;;;;7.53;3.30;;;;;;;11.74;100.00;97816.28;4975036;28;20037;-64
2023/09/26 07:23:37;;;;;;;5.50;3.40;;;;;;;11.82;100.00;97821.28;5003277;28;20132;-63
2023/09/26 07:26:17;;;;;;;4.82;2.88;;;;;;;11.91;100.00;97813.53;5004781;28;20061;-65
2023/09/26 07:28:44;;;;;;;4.57;2.60;;;;;;;11.97;100.00;97811.69;5001614;28;20050;-63
2023/09/26 07:31:12;;;;;;;5.47;3.45;;;;;;;12.08;100.00;97808.09;5003189;28;20041;-64
2023/09/26 07:33:39;;;;;;;4.15;2.92;;;;;;;12.27;100.00;97813.22;5003298;28;20145;-63
2023/09/26 07:36:07;;;;;;;5.20;2.92;;;;;;;12.52;100.00;97813.78;4999035;28;20060;-62
2023/09/26 07:38:34;;;;;;;7.35;3.20;;;;;;;12.64;100.00;97810.94;5004562;28;20633;-65
2023/09/26 07:41:01;;;;;;;4.63;2.70;;;;;;;12.75;100.00;97815.38;5004310;28;20057;-64
2023/09/26 07:43:32;;;;;;;4.40;2.78;;;;;;;12.86;100.00;97817.16;5006782;28;20045;-64
2023/09/26 07:46:07;;;;;;;8.38;2.63;;;;;;;12.98;100.00;97814.28;5004481;28;20284;-64
2023/09/26 07:48:35;;;;;;;5.47;2.55;;;;;;;13.08;100.00;97813.56;5004319;28;20432;-63
2023/09/26 07:51:02;;;;;;;5.50;2.80;;;;;;;13.15;100.00;97816.06;5004325;28;20041;-63
2023/09/26 07:53:29;;;;;;;4.72;2.25;;;;;;;13.25;100.00;97815.34;5004499;28;20128;-63
2023/09/26 07:55:56;;;;;;;4.90;2.67;;;;;;;13.32;100.00;97815.94;5005944;28;20052;-63
2023/09/26 07:58:23;;;;;;;5.20;2.75;;;;;;;13.48;100.00;97810.66;5006463;28;20572;-61
2023/09/26 08:00:52;;;;;;;4.78;3.00;;;;;;;13.59;100.00;97812.38;5001480;28;20497;-63
2023/09/26 08:03:19;;;;;;;3.58;2.45;;;;;;;13.73;100.00;97810.03;5006906;28;20755;-64
2023/09/26 08:05:45;;;;;;;4.97;2.78;;;;;;;13.84;100.00;97815.53;5005962;28;20052;-64
2023/09/26 08:08:12;;;;;;;6.78;2.90;;;;;;;14.04;100.00;97814.81;5007768;28;20044;-64
2023/09/26 08:10:39;;;;;;;4.93;2.65;;;;;;;14.12;100.00;97817.03;5003396;28;20133;-63
2023/09/26 08:13:06;;;;;;;5.75;2.95;;;;;;;14.20;100.00;97818.47;5003311;28;20042;-65
2023/09/26 08:15:36;;;;;;;4.70;2.47;;;;;;;14.26;100.00;97814.66;5004061;28;20045;-65
2023/09/26 08:18:03;;;;;;;5.35;2.35;;;;;;;14.33;100.00;97819.88;5004535;28;20046;-63
2023/09/26 08:20:31;;;;;;;5.60;2.38;;;;;;;14.39;100.00;97815.28;5004553;28;20038;-64
2023/09/26 08:22:57;;;;;;;4.78;2.60;;;;;;;14.48;100.00;97810.16;5004076;28;20038;-63
2023/09/26 08:25:25;;;;;;;5.00;2.88;;;;;;;14.60;100.00;97813.47;4999260;28;20064;-62
2023/09/26 08:27:51;;;;;;;4.13;2.35;;;;;;;14.73;100.00;97809.41;5003022;28;20469;-64
2023/09/26 08:30:18;;;;;;;5.30;2.75;;;;;;;14.83;100.00;97812.16;5001510;28;20053;-65
2023/09/26 08:32:45;;;;;;;5.43;2.55;;;;;;;14.98;100.00;97812.47;5008828;28;20054;-63
2023/09/26 08:35:11;;;;;;;4.88;2.95;;;;;;;15.14;99.94;97816.06;5004138;28;20066;-62
2023/09/26 08:37:40;;;;;;;4.25;2.60;;;;;;;15.22;98.59;97812.78;5005358;28;20045;-62
2023/09/26 08:40:11;;;;;;;4.43;2.60;;;;;;;15.40;98.58;97808.69;5003450;28;20062;-64
2023/09/26 08:42:42;;;;;;;4.93;2.55;;;;;;;15.46;96.43;97814.97;5005347;28;20518;-62
2023/09/26 08:45:10;;;;;;;5.35;2.80;;;;;;;15.52;96.21;97810.34;4998055;28;20038;-64
2023/09/26 08:47:39;;;;;;;4.47;3.15;;;;;;;15.59;96.06;97802.72;5003062;28;20054;-64
2023/09/26 08:50:07;;;;;;;5.38;3.17;;;;;;;15.70;94.79;97806.25;5005949;28;20046;-64
2023/09/26 08:52:34;;;;;;;5.80;3.03;;;;;;;15.77;94.53;97803.22;5004363;28;20046;-64
2023/09/26 08:55:01;;;;;;;7.13;2.45;;;;;;;15.83;94.42;97805.66;4976257;28;20906;-65
2023/09/26 08:57:29;;;;;;;7.32;3.63;;;;;;;16.24;90.50;97803.94;4995744;28;20050;-64
2023/09/26 09:00:00;;;;;;;6.78;3.33;;;;;;;16.29;90.74;97808.59;5002006;28;20482;-65
2023/09/26 09:02:28;;;;;;;6.55;2.95;;;;;;;16.34;90.08;97811.28;5003220;28;20211;-64
2023/09/26 09:04:55;;;;;;;4.50;2.47;;;;;;;16.38;90.08;97813.19;5002231;28;20143;-64
2023/09/26 09:07:22;;;;;;;6.28;3.33;;;;;;;16.38;89.60;97812.38;5003814;28;20053;-64
2023/09/26 09:10:04;;;;;;;6.30;3.00;;;;;;;16.48;88.54;97806.84;5001862;28;20121;-63
2023/09/26 09:12:31;;;;;;;6.45;3.25;;;;;;;16.60;86.27;97814.75;5007211;28;20053;-63
2023/09/26 09:14:57;;;;;;;6.93;3.38;;;;;;;16.65;86.29;97813.88;5000299;28;20049;-63
2023/09/26 09:17:24;;;;;;;7.55;3.85;;;;;;;16.68;84.92;97807.88;5003680;28;20116;-63
2023/09/26 09:19:52;;;;;;;8.63;4.00;;;;;;;16.76;83.34;97801.81;5002158;28;20535;-63
2023/09/26 09:22:21;;;;;;;8.00;3.50;;;;;;;16.83;84.00;97800.66;5001074;28;20053;-65
2023/09/26 09:24:56;;;;;;;4.53;2.67;;;;;;;16.88;84.08;97803.38;4982754;28;20100;-63
2023/09/26 09:27:34;;;;;;;4.53;3.28;;;;;;;16.98;83.48;97803.31;4996294;28;20053;-64
2023/09/26 09:30:06;;;;;;;4.45;2.95;;;;;;;17.04;83.59;97798.63;5002890;28;20046;-64
2023/09/26 09:32:32;;;;;;;9.27;3.85;;;;;;;17.09;82.88;97798.63;5016793;28;20038;-63
2023/09/26 09:34:59;;;;;;;4.70;2.63;;;;;;;17.19;83.47;97788.69;5001729;28;20648;-64
2023/09/26 09:37:26;;;;;;;5.40;3.25;;;;;;;17.27;82.57;97797.13;5004628;28;20123;-66
2023/09/26 09:39:53;;;;;;;4.80;2.63;;;;;;;17.52;81.69;97791.72;4978418;28;20057;-66
2023/09/26 09:42:22;;;;;;;7.22;2.60;;;;;;;17.48;80.72;97786.00;5003127;28;20061;-67
2023/09/26 09:44:49;;;;;;;4.70;2.67;;;;;;;17.55;80.79;97785.69;5003090;28;20484;-66
2023/09/26 09:47:21;;;;;;;5.63;3.38;;;;;;;17.66;78.33;97787.19;5002775;28;20496;-64
2023/09/26 09:49:49;;;;;;;4.95;1.98;;;;;;;17.75;79.10;97781.09;5003209;28;20133;-67
2023/09/26 09:52:18;;;;;;;4.32;2.70;;;;;;;17.90;75.13;97780.13;5002331;28;20034;-64
2023/09/26 09:54:46;;;;;;;5.93;2.40;;;;;;;18.03;76.50;97773.16;5001784;28;20436;-64
2023/09/26 09:57:15;;;;;;;5.22;2.25;;;;;;;18.16;75.08;97786.19;4984224;28;20042;-64
2023/09/26 09:59:43;;;;;;;4.57;2.50;;;;;;;18.17;74.96;97784.25;5004020;28;20053;-65
2023/09/26 10:02:15;;;;;;;4.63;3.10;;;;;;;18.26;73.16;97778.94;5001780;28;20121;-67
2023/09/26 10:04:55;;;;;;;5.57;2.20;;;;;;;18.27;73.71;97780.56;5001524;28;20056;-66
2023/09/26 10:07:27;;;;;;;5.70;2.20;;;;;;;18.32;74.43;97778.56;5001324;28;20041;-66
2023/09/26 10:09:54;;;;;;;5.05;2.40;;;;;;;18.33;72.31;97769.25;4999349;28;20056;-65
2023/09/26 10:12:23;;;;;;;4.60;2.28;;;;;;;18.57;71.03;97773.88;5000811;28;20573;-66
2023/09/26 10:14:49;;;;;;;4.07;2.33;;;;;;;18.57;71.91;97771.13;5002207;28;20468;-66
2023/09/26 10:17:17;;;;;;;3.78;2.22;;;;;;;18.70;72.13;97774.25;5002075;28;20046;-64
2023/09/26 10:19:44;;;;;;;4.85;2.33;;;;;;;18.77;73.05;97771.97;5001530;28;20778;-65
2023/09/26 10:22:34;;;;;;;3.88;2.22;;;;;;;18.82;73.22;97763.66;5001901;28;20100;-65
2023/09/26 10:25:02;;;;;;;7.83;2.00;;;;;;;18.81;72.20;97764.78;5001039;28;20521;-65
2023/09/26 10:27:31;;;;;;;4.10;2.08;;;;;;;18.81;72.20;97764.78;5001786;28;20285;-65
2023/09/26 10:30:18;;;;;;;4.88;1.98;;;;;;;18.86;72.12;97761.13;4996369;28;20049;-66
2023/09/26 10:32:46;;;;;;;6.15;2.50;;;;;;;18.77;72.26;97755.53;4997564;28;20636;-66
2023/09/26 10:35:15;;;;;;;5.97;2.33;;;;;;;18.82;71.72;97766.41;5001240;28;20050;-64
2023/09/26 10:37:52;;;;;;;5.60;2.10;;;;;;;18.80;71.92;97759.59;5000862;28;20044;-65
2023/09/26 10:40:19;;;;;;;8.77;2.00;;;;;;;18.83;72.00;97751.56;5001103;28;20071;-66
2023/09/26 10:42:47;;;;;;;3.92;1.90;;;;;;;18.84;72.69;97741.44;4998778;28;20042;-67
2023/09/26 10:45:16;;;;;;;4.20;1.77;;;;;;;18.89;73.16;97746.84;5002088;28;20760;-64
2023/09/26 10:47:44;;;;;;;3.83;1.80;;;;;;;18.96;72.83;97744.53;5001044;28;20049;-66
2023/09/26 10:50:31;;;;;;;4.20;2.00;;;;;;;19.16;69.46;97741.78;4999514;28;20054;-64
2023/09/26 10:52:59;;;;;;;9.82;2.40;;;;;;;19.23;70.12;97742.22;5000634;28;20042;-66
2023/09/26 10:55:26;;;;;;;4.55;2.05;;;;;;;19.23;70.55;97739.47;5001490;28;20142;-66
2023/09/26 10:57:52;;;;;;;4.78;1.98;;;;;;;19.41;71.03;97746.03;5000703;28;20116;-65
2023/09/26 11:00:19;;;;;;;4.18;2.30;;;;;;;19.52;71.81;97741.16;5001491;28;20060;-67
2023/09/26 11:02:47;;;;;;;4.75;2.63;;;;;;;19.59;70.26;97738.84;4999487;28;20164;-66
2023/09/26 11:05:15;;;;;;;6.25;3.38;;;;;;;19.51;70.18;97734.06;5001371;28;20539;-64
2023/09/26 11:07:46;;;;;;;5.18;2.45;;;;;;;19.47;70.22;97739.31;5000490;28;20509;-65
2023/09/26 11:10:14;;;;;;;6.65;2.17;;;;;;;19.52;71.24;97732.94;5000625;28;20045;-67
2023/09/26 11:12:43;;;;;;;6.30;3.03;;;;;;;19.60;71.07;97724.00;4999649;28;20092;-66
2023/09/26 11:15:10;;;;;;;7.95;3.15;;;;;;;19.56;72.30;97725.72;5001417;28;20127;-67
2023/09/26 11:17:37;;;;;;;5.35;3.13;;;;;;;19.67;72.02;97731.00;5001589;28;20046;-65
2023/09/26 11:20:05;;;;;;;4.80;2.85;;;;;;;19.70;71.83;97731.25;5001512;28;20041;-65
2023/09/26 11:22:46;;;;;;;9.93;2.95;;;;;;;19.76;72.43;97729.22;5001118;28;20647;-66
2023/09/26 11:25:13;;;;;;;2.70;1.47;;;;;;;19.91;68.55;97730.03;4997785;28;20062;-67
2023/09/26 11:27:48;;;;;;;5.70;1.90;;;;;;;20.26;64.25;97723.03;4985865;28;20285;-66
2023/09/26 11:30:20;;;;;;;3.60;1.90;;;;;;;20.30;64.33;97730.66;5001291;28;20050;-65
2023/09/26 11:32:50;;;;;;;4.32;2.10;;;;;;;20.24;65.14;97728.00;5000081;28;20100;-64
2023/09/26 11:35:18;;;;;;;3.53;1.80;;;;;;;20.16;64.31;97728.72;5001931;28;20169;-64
2023/09/26 11:37:52;;;;;;;3.40;1.58;;;;;;;20.18;62.12;97731.16;5001227;28;20064;-65